sensor_id;sensor_type;location;lat;lon;timestamp;P1;durP1;ratioP1;P2;durP2;ratioP2
13795;SDS011;40911;51.552;9.874;2024-01-10T00:01:17;19.63;;;11.23;;
13795;SDS011;40911;51.552;9.874;2024-01-10T00:03:40;21.20;;;12.77;;
13795;SDS011;40911;51.552;9.874;2024-01-10T00:06:02;19.83;;;11.27;;
13795;SDS011;40911;51.552;9.874;2024-01-10T00:08:23;15.80;;;10.33;;
13795;SDS011;40911;51.552;9.874;2024-01-10T00:10:45;13.50;;;10.60;;
13795;SDS011;40911;51.552;9.874;2024-01-10T00:13:07;18.30;;;11.03;;
13795;SDS011;40911;51.552;9.874;2024-01-10T00:15:29;13.80;;;10.20;;
13795;SDS011;40911;51.552;9.874;2024-01-10T00:17:50;17.43;;;10.93;;
13795;SDS011;40911;51.552;9.874;2024-01-10T00:22:35;15.43;;;10.20;;
13795;SDS011;40911;51.552;9.874;2024-01-10T00:27:18;11.65;;;8.73;;
13795;SDS011;40911;51.552;9.874;2024-01-10T00:32:01;15.45;;;9.43;;
13795;SDS011;40911;51.552;9.874;2024-01-10T00:34:23;15.77;;;10.70;;
13795;SDS011;40911;51.552;9.874;2024-01-10T00:36:46;17.97;;;11.90;;
13795;SDS011;40911;51.552;9.874;2024-01-10T00:39:07;21.07;;;12.43;;
13795;SDS011;40911;51.552;9.874;2024-01-10T00:41:29;23.63;;;11.80;;
13795;SDS011;40911;51.552;9.874;2024-01-10T00:43:51;19.30;;;12.20;;
13795;SDS011;40911;51.552;9.874;2024-01-10T00:46:12;21.23;;;12.80;;
13795;SDS011;40911;51.552;9.874;2024-01-10T00:48:34;19.03;;;12.07;;
13795;SDS011;40911;51.552;9.874;2024-01-10T00:50:55;20.20;;;12.43;;
13795;SDS011;40911;51.552;9.874;2024-01-10T00:53:19;19.87;;;11.13;;
13795;SDS011;40911;51.552;9.874;2024-01-10T00:55:40;20.33;;;12.53;;
13795;SDS011;40911;51.552;9.874;2024-01-10T01:00:24;18.67;;;10.70;;
13795;SDS011;40911;51.552;9.874;2024-01-10T01:02:46;16.03;;;10.60;;
13795;SDS011;40911;51.552;9.874;2024-01-10T01:07:29;14.05;;;10.40;;
13795;SDS011;40911;51.552;9.874;2024-01-10T01:09:52;14.30;;;11.03;;
13795;SDS011;40911;51.552;9.874;2024-01-10T01:12:14;22.67;;;11.83;;
13795;SDS011;40911;51.552;9.874;2024-01-10T01:14:36;16.57;;;11.17;;
13795;SDS011;40911;51.552;9.874;2024-01-10T01:16:57;24.10;;;12.27;;
13795;SDS011;40911;51.552;9.874;2024-01-10T01:21:40;21.00;;;12.40;;
13795;SDS011;40911;51.552;9.874;2024-01-10T01:24:03;19.67;;;12.27;;
13795;SDS011;40911;51.552;9.874;2024-01-10T01:26:26;19.60;;;11.97;;
13795;SDS011;40911;51.552;9.874;2024-01-10T01:28:48;19.03;;;11.93;;
13795;SDS011;40911;51.552;9.874;2024-01-10T01:33:31;16.83;;;11.68;;
13795;SDS011;40911;51.552;9.874;2024-01-10T01:35:52;26.17;;;12.33;;
13795;SDS011;40911;51.552;9.874;2024-01-10T01:38:14;24.73;;;13.13;;
13795;SDS011;40911;51.552;9.874;2024-01-10T01:40:36;19.27;;;12.13;;
13795;SDS011;40911;51.552;9.874;2024-01-10T01:42:59;25.20;;;13.47;;
13795;SDS011;40911;51.552;9.874;2024-01-10T01:45:20;22.47;;;12.77;;
13795;SDS011;40911;51.552;9.874;2024-01-10T01:47:42;19.27;;;13.07;;
13795;SDS011;40911;51.552;9.874;2024-01-10T01:50:05;18.87;;;11.97;;
13795;SDS011;40911;51.552;9.874;2024-01-10T01:52:28;22.50;;;12.93;;
13795;SDS011;40911;51.552;9.874;2024-01-10T01:54:51;21.37;;;12.70;;
13795;SDS011;40911;51.552;9.874;2024-01-10T01:57:13;26.40;;;12.30;;
13795;SDS011;40911;51.552;9.874;2024-01-10T01:59:36;21.87;;;12.40;;
13795;SDS011;40911;51.552;9.874;2024-01-10T02:01:58;22.47;;;13.23;;
13795;SDS011;40911;51.552;9.874;2024-01-10T02:04:23;24.53;;;13.43;;
13795;SDS011;40911;51.552;9.874;2024-01-10T02:06:45;20.97;;;12.77;;
13795;SDS011;40911;51.552;9.874;2024-01-10T02:09:07;24.27;;;13.40;;
13795;SDS011;40911;51.552;9.874;2024-01-10T02:11:29;21.77;;;11.97;;
13795;SDS011;40911;51.552;9.874;2024-01-10T02:13:51;25.43;;;12.53;;
13795;SDS011;40911;51.552;9.874;2024-01-10T02:16:16;24.37;;;12.87;;
13795;SDS011;40911;51.552;9.874;2024-01-10T02:18:39;27.50;;;13.87;;
13795;SDS011;40911;51.552;9.874;2024-01-10T02:21:00;25.10;;;13.77;;
13795;SDS011;40911;51.552;9.874;2024-01-10T02:23:22;22.30;;;13.10;;
13795;SDS011;40911;51.552;9.874;2024-01-10T02:28:06;25.60;;;11.97;;
13795;SDS011;40911;51.552;9.874;2024-01-10T02:30:29;25.70;;;12.87;;
13795;SDS011;40911;51.552;9.874;2024-01-10T02:32:50;22.93;;;13.37;;
13795;SDS011;40911;51.552;9.874;2024-01-10T02:35:12;29.90;;;14.27;;
13795;SDS011;40911;51.552;9.874;2024-01-10T02:37:34;28.07;;;15.00;;
13795;SDS011;40911;51.552;9.874;2024-01-10T02:39:55;28.60;;;13.97;;
13795;SDS011;40911;51.552;9.874;2024-01-10T02:42:18;28.80;;;14.10;;
13795;SDS011;40911;51.552;9.874;2024-01-10T02:44:40;29.97;;;14.73;;
13795;SDS011;40911;51.552;9.874;2024-01-10T02:47:01;23.37;;;13.70;;
13795;SDS011;40911;51.552;9.874;2024-01-10T02:49:23;29.63;;;15.13;;
13795;SDS011;40911;51.552;9.874;2024-01-10T02:51:45;27.83;;;14.90;;
13795;SDS011;40911;51.552;9.874;2024-01-10T02:54:06;31.63;;;15.07;;
13795;SDS011;40911;51.552;9.874;2024-01-10T02:56:28;28.97;;;15.83;;
13795;SDS011;40911;51.552;9.874;2024-01-10T02:58:51;33.83;;;16.63;;
13795;SDS011;40911;51.552;9.874;2024-01-10T03:01:13;34.63;;;17.60;;
13795;SDS011;40911;51.552;9.874;2024-01-10T03:03:35;32.80;;;16.33;;
13795;SDS011;40911;51.552;9.874;2024-01-10T03:05:57;33.87;;;16.50;;
13795;SDS011;40911;51.552;9.874;2024-01-10T03:08:18;36.37;;;16.87;;
13795;SDS011;40911;51.552;9.874;2024-01-10T03:10:40;32.03;;;16.10;;
13795;SDS011;40911;51.552;9.874;2024-01-10T03:13:02;29.50;;;17.03;;
13795;SDS011;40911;51.552;9.874;2024-01-10T03:15:25;30.93;;;16.10;;
13795;SDS011;40911;51.552;9.874;2024-01-10T03:17:47;28.67;;;15.53;;
13795;SDS011;40911;51.552;9.874;2024-01-10T03:20:09;26.90;;;15.83;;
13795;SDS011;40911;51.552;9.874;2024-01-10T03:22:31;28.50;;;15.23;;
13795;SDS011;40911;51.552;9.874;2024-01-10T03:24:52;28.93;;;15.80;;
13795;SDS011;40911;51.552;9.874;2024-01-10T03:27:14;28.37;;;15.47;;
13795;SDS011;40911;51.552;9.874;2024-01-10T03:29:36;36.43;;;17.40;;
13795;SDS011;40911;51.552;9.874;2024-01-10T03:31:59;33.37;;;16.27;;
13795;SDS011;40911;51.552;9.874;2024-01-10T03:34:20;30.67;;;17.40;;
13795;SDS011;40911;51.552;9.874;2024-01-10T03:36:42;44.13;;;18.70;;
13795;SDS011;40911;51.552;9.874;2024-01-10T03:39:03;36.37;;;18.10;;
13795;SDS011;40911;51.552;9.874;2024-01-10T03:41:25;36.97;;;18.63;;
13795;SDS011;40911;51.552;9.874;2024-01-10T03:43:48;35.20;;;17.80;;
13795;SDS011;40911;51.552;9.874;2024-01-10T03:46:10;32.80;;;17.07;;
13795;SDS011;40911;51.552;9.874;2024-01-10T03:48:34;34.27;;;15.90;;
13795;SDS011;40911;51.552;9.874;2024-01-10T03:50:57;33.03;;;16.00;;
13795;SDS011;40911;51.552;9.874;2024-01-10T03:53:18;32.67;;;17.13;;
13795;SDS011;40911;51.552;9.874;2024-01-10T03:55:40;32.17;;;16.37;;
13795;SDS011;40911;51.552;9.874;2024-01-10T03:58:02;33.60;;;16.80;;
13795;SDS011;40911;51.552;9.874;2024-01-10T04:00:24;35.90;;;16.57;;
13795;SDS011;40911;51.552;9.874;2024-01-10T04:02:46;31.73;;;15.57;;
13795;SDS011;40911;51.552;9.874;2024-01-10T04:05:09;31.10;;;15.80;;
13795;SDS011;40911;51.552;9.874;2024-01-10T04:07:32;27.70;;;15.37;;
13795;SDS011;40911;51.552;9.874;2024-01-10T04:09:54;24.47;;;14.50;;
13795;SDS011;40911;51.552;9.874;2024-01-10T04:12:16;24.20;;;13.87;;
13795;SDS011;40911;51.552;9.874;2024-01-10T04:14:37;30.77;;;15.13;;
13795;SDS011;40911;51.552;9.874;2024-01-10T04:16:59;30.23;;;15.30;;
13795;SDS011;40911;51.552;9.874;2024-01-10T04:19:21;29.40;;;16.47;;
13795;SDS011;40911;51.552;9.874;2024-01-10T04:21:44;35.10;;;15.90;;
13795;SDS011;40911;51.552;9.874;2024-01-10T04:24:06;33.90;;;16.40;;
13795;SDS011;40911;51.552;9.874;2024-01-10T04:26:27;33.27;;;15.33;;
13795;SDS011;40911;51.552;9.874;2024-01-10T04:28:49;28.17;;;15.50;;
13795;SDS011;40911;51.552;9.874;2024-01-10T04:31:11;25.37;;;15.03;;
13795;SDS011;40911;51.552;9.874;2024-01-10T04:33:32;31.60;;;16.07;;
13795;SDS011;40911;51.552;9.874;2024-01-10T04:35:54;25.60;;;14.43;;
13795;SDS011;40911;51.552;9.874;2024-01-10T04:38:26;33.13;;;16.53;;
13795;SDS011;40911;51.552;9.874;2024-01-10T04:40:48;33.03;;;16.07;;
13795;SDS011;40911;51.552;9.874;2024-01-10T04:43:09;28.80;;;15.37;;
13795;SDS011;40911;51.552;9.874;2024-01-10T04:45:31;29.87;;;15.93;;
13795;SDS011;40911;51.552;9.874;2024-01-10T04:47:53;26.17;;;15.03;;
13795;SDS011;40911;51.552;9.874;2024-01-10T04:50:14;28.87;;;15.47;;
13795;SDS011;40911;51.552;9.874;2024-01-10T04:52:36;31.23;;;15.70;;
13795;SDS011;40911;51.552;9.874;2024-01-10T04:54:59;29.27;;;16.10;;
13795;SDS011;40911;51.552;9.874;2024-01-10T04:57:21;32.80;;;15.17;;
13795;SDS011;40911;51.552;9.874;2024-01-10T04:59:43;31.10;;;15.83;;
13795;SDS011;40911;51.552;9.874;2024-01-10T05:02:05;28.83;;;14.23;;
13795;SDS011;40911;51.552;9.874;2024-01-10T05:04:27;26.97;;;14.17;;
13795;SDS011;40911;51.552;9.874;2024-01-10T05:06:49;21.57;;;14.07;;
13795;SDS011;40911;51.552;9.874;2024-01-10T05:09:11;22.43;;;13.53;;
13795;SDS011;40911;51.552;9.874;2024-01-10T05:11:35;25.50;;;13.77;;
13795;SDS011;40911;51.552;9.874;2024-01-10T05:13:58;22.47;;;12.60;;
13795;SDS011;40911;51.552;9.874;2024-01-10T05:16:19;23.70;;;13.13;;
13795;SDS011;40911;51.552;9.874;2024-01-10T05:18:44;24.63;;;13.57;;
13795;SDS011;40911;51.552;9.874;2024-01-10T05:21:06;23.53;;;13.07;;
13795;SDS011;40911;51.552;9.874;2024-01-10T05:23:28;21.17;;;13.70;;
13795;SDS011;40911;51.552;9.874;2024-01-10T05:25:50;21.00;;;12.83;;
13795;SDS011;40911;51.552;9.874;2024-01-10T05:28:13;19.53;;;12.97;;
13795;SDS011;40911;51.552;9.874;2024-01-10T05:30:35;24.83;;;13.27;;
13795;SDS011;40911;51.552;9.874;2024-01-10T05:32:57;20.90;;;14.00;;
13795;SDS011;40911;51.552;9.874;2024-01-10T05:35:18;21.23;;;13.47;;
13795;SDS011;40911;51.552;9.874;2024-01-10T05:37:40;20.90;;;13.07;;
13795;SDS011;40911;51.552;9.874;2024-01-10T05:40:02;19.83;;;12.77;;
13795;SDS011;40911;51.552;9.874;2024-01-10T05:42:24;27.10;;;13.67;;
13795;SDS011;40911;51.552;9.874;2024-01-10T05:44:48;25.67;;;15.07;;
13795;SDS011;40911;51.552;9.874;2024-01-10T05:47:09;26.10;;;15.37;;
13795;SDS011;40911;51.552;9.874;2024-01-10T05:49:31;24.20;;;15.10;;
13795;SDS011;40911;51.552;9.874;2024-01-10T05:51:53;24.43;;;14.13;;
13795;SDS011;40911;51.552;9.874;2024-01-10T05:54:15;26.50;;;15.10;;
13795;SDS011;40911;51.552;9.874;2024-01-10T05:56:38;30.73;;;14.10;;
13795;SDS011;40911;51.552;9.874;2024-01-10T05:58:59;23.40;;;13.63;;
13795;SDS011;40911;51.552;9.874;2024-01-10T06:01:22;22.63;;;13.73;;
13795;SDS011;40911;51.552;9.874;2024-01-10T06:03:44;25.77;;;14.47;;
13795;SDS011;40911;51.552;9.874;2024-01-10T06:08:27;19.73;;;12.15;;
13795;SDS011;40911;51.552;9.874;2024-01-10T06:10:49;30.03;;;14.37;;
13795;SDS011;40911;51.552;9.874;2024-01-10T06:13:10;25.27;;;13.77;;
13795;SDS011;40911;51.552;9.874;2024-01-10T06:15:35;24.63;;;14.30;;
13795;SDS011;40911;51.552;9.874;2024-01-10T06:17:57;24.35;;;14.32;;
13795;SDS011;40911;51.552;9.874;2024-01-10T06:20:19;29.07;;;14.60;;
13795;SDS011;40911;51.552;9.874;2024-01-10T06:22:40;21.63;;;14.30;;
13795;SDS011;40911;51.552;9.874;2024-01-10T06:25:02;24.87;;;15.27;;
13795;SDS011;40911;51.552;9.874;2024-01-10T06:27:24;28.07;;;14.57;;
13795;SDS011;40911;51.552;9.874;2024-01-10T06:29:46;27.00;;;13.73;;
13795;SDS011;40911;51.552;9.874;2024-01-10T06:32:15;26.60;;;15.10;;
13795;SDS011;40911;51.552;9.874;2024-01-10T06:34:38;26.23;;;14.00;;
13795;SDS011;40911;51.552;9.874;2024-01-10T06:37:00;27.60;;;14.80;;
13795;SDS011;40911;51.552;9.874;2024-01-10T06:39:22;24.23;;;15.03;;
13795;SDS011;40911;51.552;9.874;2024-01-10T06:41:43;26.53;;;14.07;;
13795;SDS011;40911;51.552;9.874;2024-01-10T06:44:05;30.20;;;14.50;;
13795;SDS011;40911;51.552;9.874;2024-01-10T06:46:27;23.60;;;13.77;;
13795;SDS011;40911;51.552;9.874;2024-01-10T06:48:50;26.03;;;14.70;;
13795;SDS011;40911;51.552;9.874;2024-01-10T06:51:31;36.00;;;16.87;;
13795;SDS011;40911;51.552;9.874;2024-01-10T06:53:53;32.45;;;17.30;;
13795;SDS011;40911;51.552;9.874;2024-01-10T06:56:24;34.03;;;16.50;;
13795;SDS011;40911;51.552;9.874;2024-01-10T06:58:46;28.90;;;15.33;;
13795;SDS011;40911;51.552;9.874;2024-01-10T07:01:11;40.30;;;16.53;;
13795;SDS011;40911;51.552;9.874;2024-01-10T07:03:33;29.83;;;16.40;;
13795;SDS011;40911;51.552;9.874;2024-01-10T07:05:54;30.87;;;16.93;;
13795;SDS011;40911;51.552;9.874;2024-01-10T07:08:18;34.43;;;16.87;;
13795;SDS011;40911;51.552;9.874;2024-01-10T07:10:40;34.57;;;16.63;;
13795;SDS011;40911;51.552;9.874;2024-01-10T07:13:01;45.13;;;20.80;;
13795;SDS011;40911;51.552;9.874;2024-01-10T07:15:24;38.43;;;19.93;;
13795;SDS011;40911;51.552;9.874;2024-01-10T07:17:46;34.77;;;17.67;;
13795;SDS011;40911;51.552;9.874;2024-01-10T07:20:08;44.57;;;19.80;;
13795;SDS011;40911;51.552;9.874;2024-01-10T07:22:32;36.37;;;19.20;;
13795;SDS011;40911;51.552;9.874;2024-01-10T07:24:56;33.00;;;18.00;;
13795;SDS011;40911;51.552;9.874;2024-01-10T07:27:18;38.27;;;18.40;;
13795;SDS011;40911;51.552;9.874;2024-01-10T07:29:39;31.50;;;17.30;;
13795;SDS011;40911;51.552;9.874;2024-01-10T07:32:01;35.83;;;17.10;;
13795;SDS011;40911;51.552;9.874;2024-01-10T07:34:23;30.83;;;17.57;;
13795;SDS011;40911;51.552;9.874;2024-01-10T07:36:45;34.20;;;16.17;;
13795;SDS011;40911;51.552;9.874;2024-01-10T07:39:07;32.90;;;16.77;;
13795;SDS011;40911;51.552;9.874;2024-01-10T07:41:30;24.20;;;16.40;;
13795;SDS011;40911;51.552;9.874;2024-01-10T07:43:52;34.93;;;18.00;;
13795;SDS011;40911;51.552;9.874;2024-01-10T07:46:16;29.03;;;16.47;;
13795;SDS011;40911;51.552;9.874;2024-01-10T07:48:38;33.53;;;16.50;;
13795;SDS011;40911;51.552;9.874;2024-01-10T07:50:59;30.47;;;17.87;;
13795;SDS011;40911;51.552;9.874;2024-01-10T07:53:21;31.07;;;16.27;;
13795;SDS011;40911;51.552;9.874;2024-01-10T07:55:46;26.90;;;14.67;;
13795;SDS011;40911;51.552;9.874;2024-01-10T07:58:09;33.70;;;16.90;;
13795;SDS011;40911;51.552;9.874;2024-01-10T08:00:36;33.07;;;17.43;;
13795;SDS011;40911;51.552;9.874;2024-01-10T08:02:58;30.00;;;15.13;;
13795;SDS011;40911;51.552;9.874;2024-01-10T08:05:30;36.43;;;16.60;;
13795;SDS011;40911;51.552;9.874;2024-01-10T08:07:51;34.20;;;16.35;;
13795;SDS011;40911;51.552;9.874;2024-01-10T08:10:13;30.57;;;16.97;;
13795;SDS011;40911;51.552;9.874;2024-01-10T08:12:35;34.00;;;17.07;;
13795;SDS011;40911;51.552;9.874;2024-01-10T08:14:59;37.07;;;18.33;;
13795;SDS011;40911;51.552;9.874;2024-01-10T08:17:21;42.57;;;19.70;;
13795;SDS011;40911;51.552;9.874;2024-01-10T08:19:43;33.17;;;17.50;;
13795;SDS011;40911;51.552;9.874;2024-01-10T08:24:28;29.00;;;16.43;;
13795;SDS011;40911;51.552;9.874;2024-01-10T08:26:49;35.33;;;16.33;;
13795;SDS011;40911;51.552;9.874;2024-01-10T08:29:12;33.07;;;18.03;;
13795;SDS011;40911;51.552;9.874;2024-01-10T08:31:36;35.87;;;20.23;;
13795;SDS011;40911;51.552;9.874;2024-01-10T08:33:59;39.53;;;18.80;;
13795;SDS011;40911;51.552;9.874;2024-01-10T08:36:21;35.37;;;17.97;;
13795;SDS011;40911;51.552;9.874;2024-01-10T08:38:44;35.07;;;17.33;;
13795;SDS011;40911;51.552;9.874;2024-01-10T08:41:06;35.60;;;17.27;;
13795;SDS011;40911;51.552;9.874;2024-01-10T08:43:28;37.63;;;18.77;;
13795;SDS011;40911;51.552;9.874;2024-01-10T08:45:50;35.13;;;18.03;;
13795;SDS011;40911;51.552;9.874;2024-01-10T08:48:13;43.30;;;18.57;;
13795;SDS011;40911;51.552;9.874;2024-01-10T08:50:35;35.70;;;17.90;;
13795;SDS011;40911;51.552;9.874;2024-01-10T08:52:57;39.03;;;18.17;;
13795;SDS011;40911;51.552;9.874;2024-01-10T08:55:19;43.65;;;18.90;;
13795;SDS011;40911;51.552;9.874;2024-01-10T08:57:41;38.88;;;18.15;;
13795;SDS011;40911;51.552;9.874;2024-01-10T09:00:03;39.05;;;18.50;;
13795;SDS011;40911;51.552;9.874;2024-01-10T09:02:33;40.60;;;18.35;;
13795;SDS011;40911;51.552;9.874;2024-01-10T09:04:58;38.28;;;18.33;;
13795;SDS011;40911;51.552;9.874;2024-01-10T09:07:19;44.40;;;19.85;;
13795;SDS011;40911;51.552;9.874;2024-01-10T09:12:03;34.13;;;17.63;;
13795;SDS011;40911;51.552;9.874;2024-01-10T09:14:26;39.70;;;17.92;;
13795;SDS011;40911;51.552;9.874;2024-01-10T09:16:48;36.13;;;17.77;;
13795;SDS011;40911;51.552;9.874;2024-01-10T09:19:09;30.75;;;17.40;;
13795;SDS011;40911;51.552;9.874;2024-01-10T09:23:54;36.60;;;17.90;;
13795;SDS011;40911;51.552;9.874;2024-01-10T09:26:16;32.80;;;18.08;;
13795;SDS011;40911;51.552;9.874;2024-01-10T09:31:00;40.22;;;17.42;;
13795;SDS011;40911;51.552;9.874;2024-01-10T09:35:45;36.75;;;17.15;;
13795;SDS011;40911;51.552;9.874;2024-01-10T09:38:08;38.38;;;19.15;;
13795;SDS011;40911;51.552;9.874;2024-01-10T09:40:30;40.47;;;18.40;;
13795;SDS011;40911;51.552;9.874;2024-01-10T09:43:00;38.25;;;19.00;;
13795;SDS011;40911;51.552;9.874;2024-01-10T09:45:22;41.90;;;20.20;;
13795;SDS011;40911;51.552;9.874;2024-01-10T09:47:48;41.20;;;19.55;;
13795;SDS011;40911;51.552;9.874;2024-01-10T09:50:10;38.95;;;17.85;;
13795;SDS011;40911;51.552;9.874;2024-01-10T09:54:58;34.15;;;17.85;;
13795;SDS011;40911;51.552;9.874;2024-01-10T09:57:20;40.13;;;19.08;;
13795;SDS011;40911;51.552;9.874;2024-01-10T09:59:43;36.17;;;19.23;;
13795;SDS011;40911;51.552;9.874;2024-01-10T10:02:07;39.90;;;20.23;;
13795;SDS011;40911;51.552;9.874;2024-01-10T10:04:29;39.30;;;20.30;;
13795;SDS011;40911;51.552;9.874;2024-01-10T10:06:57;32.67;;;18.73;;
13795;SDS011;40911;51.552;9.874;2024-01-10T10:09:21;37.50;;;20.50;;
13795;SDS011;40911;51.552;9.874;2024-01-10T10:11:44;41.13;;;19.77;;
13795;SDS011;40911;51.552;9.874;2024-01-10T10:16:36;36.28;;;18.67;;
13795;SDS011;40911;51.552;9.874;2024-01-10T10:19:02;35.22;;;18.80;;
13795;SDS011;40911;51.552;9.874;2024-01-10T10:21:25;45.47;;;20.33;;
13795;SDS011;40911;51.552;9.874;2024-01-10T10:23:57;42.65;;;19.38;;
13795;SDS011;40911;51.552;9.874;2024-01-10T10:26:20;48.00;;;20.67;;
13795;SDS011;40911;51.552;9.874;2024-01-10T10:28:44;39.95;;;20.40;;
13795;SDS011;40911;51.552;9.874;2024-01-10T10:31:06;38.53;;;20.05;;
13795;SDS011;40911;51.552;9.874;2024-01-10T10:33:28;38.17;;;20.33;;
13795;SDS011;40911;51.552;9.874;2024-01-10T10:35:53;42.78;;;20.83;;
13795;SDS011;40911;51.552;9.874;2024-01-10T10:38:21;43.55;;;20.80;;
13795;SDS011;40911;51.552;9.874;2024-01-10T10:40:43;39.88;;;19.83;;
13795;SDS011;40911;51.552;9.874;2024-01-10T10:45:33;40.35;;;21.20;;
13795;SDS011;40911;51.552;9.874;2024-01-10T10:47:56;35.83;;;18.02;;
13795;SDS011;40911;51.552;9.874;2024-01-10T10:50:20;40.30;;;20.98;;
13795;SDS011;40911;51.552;9.874;2024-01-10T10:52:44;40.30;;;19.92;;
13795;SDS011;40911;51.552;9.874;2024-01-10T10:55:07;36.97;;;19.63;;
13795;SDS011;40911;51.552;9.874;2024-01-10T10:57:29;42.30;;;19.85;;
13795;SDS011;40911;51.552;9.874;2024-01-10T10:59:52;45.70;;;21.42;;
13795;SDS011;40911;51.552;9.874;2024-01-10T11:02:18;38.03;;;19.60;;
13795;SDS011;40911;51.552;9.874;2024-01-10T11:04:43;38.00;;;20.15;;
13795;SDS011;40911;51.552;9.874;2024-01-10T11:07:05;34.80;;;18.20;;
13795;SDS011;40911;51.552;9.874;2024-01-10T11:09:28;42.60;;;19.45;;
13795;SDS011;40911;51.552;9.874;2024-01-10T11:11:57;44.03;;;20.17;;
13795;SDS011;40911;51.552;9.874;2024-01-10T11:14:32;39.88;;;20.25;;
13795;SDS011;40911;51.552;9.874;2024-01-10T11:17:11;39.50;;;18.85;;
13795;SDS011;40911;51.552;9.874;2024-01-10T11:19:58;38.03;;;19.13;;
13795;SDS011;40911;51.552;9.874;2024-01-10T11:22:36;36.92;;;19.02;;
13795;SDS011;40911;51.552;9.874;2024-01-10T11:25:10;36.03;;;18.80;;
13795;SDS011;40911;51.552;9.874;2024-01-10T11:27:34;38.22;;;17.90;;
13795;SDS011;40911;51.552;9.874;2024-01-10T11:29:58;37.30;;;19.52;;
13795;SDS011;40911;51.552;9.874;2024-01-10T11:32:28;40.42;;;19.38;;
13795;SDS011;40911;51.552;9.874;2024-01-10T11:34:54;41.15;;;19.70;;
13795;SDS011;40911;51.552;9.874;2024-01-10T11:37:16;37.58;;;18.95;;
13795;SDS011;40911;51.552;9.874;2024-01-10T11:39:41;35.00;;;19.42;;
13795;SDS011;40911;51.552;9.874;2024-01-10T11:42:04;39.97;;;19.75;;
13795;SDS011;40911;51.552;9.874;2024-01-10T11:44:27;33.90;;;18.65;;
13795;SDS011;40911;51.552;9.874;2024-01-10T11:46:53;36.00;;;19.45;;
13795;SDS011;40911;51.552;9.874;2024-01-10T11:49:18;37.40;;;21.35;;
13795;SDS011;40911;51.552;9.874;2024-01-10T11:51:41;32.95;;;18.23;;
13795;SDS011;40911;51.552;9.874;2024-01-10T11:54:03;37.60;;;18.92;;
13795;SDS011;40911;51.552;9.874;2024-01-10T11:56:25;40.15;;;19.17;;
13795;SDS011;40911;51.552;9.874;2024-01-10T11:59:02;41.55;;;19.58;;
13795;SDS011;40911;51.552;9.874;2024-01-10T12:01:25;38.50;;;17.50;;
13795;SDS011;40911;51.552;9.874;2024-01-10T12:03:49;41.35;;;19.75;;
13795;SDS011;40911;51.552;9.874;2024-01-10T12:06:14;42.55;;;20.20;;
13795;SDS011;40911;51.552;9.874;2024-01-10T12:08:38;40.20;;;19.70;;
13795;SDS011;40911;51.552;9.874;2024-01-10T12:13:22;45.65;;;19.23;;
13795;SDS011;40911;51.552;9.874;2024-01-10T12:15:44;37.75;;;18.35;;
13795;SDS011;40911;51.552;9.874;2024-01-10T12:20:27;38.97;;;18.00;;
13795;SDS011;40911;51.552;9.874;2024-01-10T12:25:12;36.00;;;16.88;;
13795;SDS011;40911;51.552;9.874;2024-01-10T12:27:33;33.70;;;19.10;;
13795;SDS011;40911;51.552;9.874;2024-01-10T12:30:00;36.25;;;19.27;;
13795;SDS011;40911;51.552;9.874;2024-01-10T12:32:23;38.78;;;20.00;;
13795;SDS011;40911;51.552;9.874;2024-01-10T12:34:44;41.85;;;20.38;;
13795;SDS011;40911;51.552;9.874;2024-01-10T12:39:29;34.33;;;17.08;;
13795;SDS011;40911;51.552;9.874;2024-01-10T12:41:51;38.15;;;18.42;;
13795;SDS011;40911;51.552;9.874;2024-01-10T12:44:13;38.47;;;18.88;;
13795;SDS011;40911;51.552;9.874;2024-01-10T12:46:35;40.97;;;19.10;;
13795;SDS011;40911;51.552;9.874;2024-01-10T12:49:10;36.20;;;19.65;;
13795;SDS011;40911;51.552;9.874;2024-01-10T12:51:31;37.70;;;18.30;;
13795;SDS011;40911;51.552;9.874;2024-01-10T12:53:57;35.95;;;18.83;;
13795;SDS011;40911;51.552;9.874;2024-01-10T12:56:21;36.17;;;19.38;;
13795;SDS011;40911;51.552;9.874;2024-01-10T12:58:42;33.35;;;18.50;;
13795;SDS011;40911;51.552;9.874;2024-01-10T13:03:26;38.08;;;18.95;;
13795;SDS011;40911;51.552;9.874;2024-01-10T13:05:47;37.95;;;18.70;;
13795;SDS011;40911;51.552;9.874;2024-01-10T13:08:09;36.67;;;18.27;;
13795;SDS011;40911;51.552;9.874;2024-01-10T13:10:31;38.63;;;19.60;;
13795;SDS011;40911;51.552;9.874;2024-01-10T13:15:16;36.00;;;16.92;;
13795;SDS011;40911;51.552;9.874;2024-01-10T13:17:38;39.75;;;18.73;;
13795;SDS011;40911;51.552;9.874;2024-01-10T13:22:23;41.15;;;16.88;;
13795;SDS011;40911;51.552;9.874;2024-01-10T13:24:45;38.28;;;18.67;;
13795;SDS011;40911;51.552;9.874;2024-01-10T13:27:06;40.58;;;18.70;;
13795;SDS011;40911;51.552;9.874;2024-01-10T13:29:31;37.95;;;18.60;;
13795;SDS011;40911;51.552;9.874;2024-01-10T13:31:52;35.28;;;18.30;;
13795;SDS011;40911;51.552;9.874;2024-01-10T13:36:36;35.60;;;18.63;;
13795;SDS011;40911;51.552;9.874;2024-01-10T13:41:19;34.83;;;16.70;;
13795;SDS011;40911;51.552;9.874;2024-01-10T13:46:03;41.40;;;18.27;;
13795;SDS011;40911;51.552;9.874;2024-01-10T13:48:25;36.22;;;18.00;;
13795;SDS011;40911;51.552;9.874;2024-01-10T13:50:47;39.95;;;18.15;;
13795;SDS011;40911;51.552;9.874;2024-01-10T13:53:09;36.22;;;18.67;;
13795;SDS011;40911;51.552;9.874;2024-01-10T13:57:52;44.97;;;19.42;;
13795;SDS011;40911;51.552;9.874;2024-01-10T14:00:15;39.63;;;18.77;;
13795;SDS011;40911;51.552;9.874;2024-01-10T14:02:38;40.53;;;19.40;;
13795;SDS011;40911;51.552;9.874;2024-01-10T14:05:00;41.83;;;18.60;;
13795;SDS011;40911;51.552;9.874;2024-01-10T14:07:25;39.45;;;19.38;;
13795;SDS011;40911;51.552;9.874;2024-01-10T14:09:47;37.47;;;19.70;;
13795;SDS011;40911;51.552;9.874;2024-01-10T14:12:08;36.53;;;18.42;;
13795;SDS011;40911;51.552;9.874;2024-01-10T14:16:53;42.67;;;18.40;;
13795;SDS011;40911;51.552;9.874;2024-01-10T14:19:16;38.58;;;19.80;;
13795;SDS011;40911;51.552;9.874;2024-01-10T14:21:38;37.25;;;18.73;;
13795;SDS011;40911;51.552;9.874;2024-01-10T14:26:22;36.45;;;18.10;;
13795;SDS011;40911;51.552;9.874;2024-01-10T14:28:44;41.67;;;18.85;;
13795;SDS011;40911;51.552;9.874;2024-01-10T14:33:27;35.90;;;17.27;;
13795;SDS011;40911;51.552;9.874;2024-01-10T14:35:50;34.63;;;18.67;;
13795;SDS011;40911;51.552;9.874;2024-01-10T14:38:12;35.13;;;19.00;;
13795;SDS011;40911;51.552;9.874;2024-01-10T14:40:34;37.17;;;19.88;;
13795;SDS011;40911;51.552;9.874;2024-01-10T14:42:56;36.42;;;17.92;;
13795;SDS011;40911;51.552;9.874;2024-01-10T14:45:18;38.08;;;19.25;;
13795;SDS011;40911;51.552;9.874;2024-01-10T14:47:40;36.47;;;18.67;;
13795;SDS011;40911;51.552;9.874;2024-01-10T14:50:02;41.35;;;19.58;;
13795;SDS011;40911;51.552;9.874;2024-01-10T14:52:26;39.15;;;19.77;;
13795;SDS011;40911;51.552;9.874;2024-01-10T14:54:48;39.63;;;20.45;;
13795;SDS011;40911;51.552;9.874;2024-01-10T14:57:09;47.00;;;19.83;;
13795;SDS011;40911;51.552;9.874;2024-01-10T15:01:52;38.15;;;19.10;;
13795;SDS011;40911;51.552;9.874;2024-01-10T15:04:14;39.63;;;19.35;;
13795;SDS011;40911;51.552;9.874;2024-01-10T15:06:36;43.42;;;19.42;;
13795;SDS011;40911;51.552;9.874;2024-01-10T15:09:04;37.88;;;20.17;;
13795;SDS011;40911;51.552;9.874;2024-01-10T15:11:26;43.67;;;20.83;;